Time;durP1;ratioP1;P1;durP2;ratioP2;P2;SDS_P1;SDS_P2;PMS_P1;PMS_P2;Temp;Humidity;BMP_temperature;BMP_pressure;BME280_temperature;BME280_humidity;BME280_pressure;Samples;Min_cycle;Max_cycle;Signal;HPM_P1;HPM_P2
2022/10/28 00:02:20;;;;;;;0.63;0.63;;;;;;;11.24;95.78;101531.22;5035283;28;20431;-75
2022/10/28 00:04:46;;;;;;;1.27;0.98;;;;;;;11.26;95.82;101529.31;5035545;28;20044;-73
2022/10/28 00:07:11;;;;;;;10.15;0.88;;;;;;;11.31;95.82;101538.78;5034070;28;20116;-74
2022/10/28 00:09:37;;;;;;;1.80;1.35;;;;;;;11.30;95.59;101530.81;5034057;28;20033;-75
2022/10/28 00:12:03;;;;;;;0.15;0.15;;;;;;;11.31;95.36;101525.31;5035567;28;20026;-74
2022/10/28 00:14:28;;;;;;;1.55;0.60;;;;;;;11.36;96.03;101535.75;5035027;28;20033;-73
2022/10/28 00:16:54;;;;;;;0.30;0.30;;;;;;;11.32;95.17;101528.88;5035513;28;20034;-73
2022/10/28 00:19:19;;;;;;;1.98;0.90;;;;;;;11.34;95.70;101532.31;5033817;28;20466;-73
2022/10/28 00:21:45;;;;;;;4.47;1.65;;;;;;;11.32;95.72;101531.56;5035003;28;20425;-73
2022/10/28 00:24:12;;;;;;;0.10;0.10;;;;;;;11.34;95.86;101526.94;5035328;28;20029;-73
2022/10/28 00:26:41;;;;;;;8.80;1.60;;;;;;;11.35;95.99;101532.19;5035142;28;20033;-73
2022/10/28 00:29:09;;;;;;;0.43;0.38;;;;;;;11.35;95.37;101528.66;5033354;28;20037;-75
2022/10/28 00:31:36;;;;;;;6.32;1.00;;;;;;;11.36;96.24;101525.00;5033816;28;20037;-74
2022/10/28 00:34:04;;;;;;;0.20;0.20;;;;;;;11.39;95.33;101511.31;5033515;28;20038;-75
2022/10/28 00:36:37;;;;;;;0.17;0.17;;;;;;;11.39;95.32;101519.38;5033521;28;20065;-74
2022/10/28 00:39:10;;;;;;;3.63;0.75;;;;;;;11.39;95.96;101525.63;5033298;28;20034;-74
2022/10/28 00:41:38;;;;;;;0.30;0.30;;;;;;;11.42;95.27;101513.78;5034593;28;20513;-73
2022/10/28 00:44:41;;;;;;;6.65;0.82;;;;;;;11.42;94.99;101514.66;5034784;28;20038;-74
2022/10/28 00:47:20;;;;;;;0.40;0.40;;;;;;;11.43;95.03;101505.59;5034646;28;20124;-74
2022/10/28 00:49:51;;;;;;;11.88;2.78;;;;;;;11.40;95.32;101510.34;5032461;28;20168;-74
2022/10/28 00:52:23;;;;;;;0.22;0.08;;;;;;;11.43;95.53;101512.81;5034449;28;20029;-75
2022/10/28 00:54:51;;;;;;;0.90;0.63;;;;;;;11.43;95.38;101510.13;5034622;28;20061;-74
2022/10/28 00:57:21;;;;;;;0.90;0.63;;;;;;;11.43;95.07;101505.59;5033258;28;20398;-74
2022/10/28 00:59:50;;;;;;;1.17;1.08;;;;;;;11.44;95.62;101511.84;5034442;28;20029;-74
2022/10/28 01:02:16;;;;;;;0.43;0.43;;;;;;;11.45;95.62;101509.06;5033080;28;20454;-74
2022/10/28 01:04:43;;;;;;;0.30;0.30;;;;;;;11.47;95.32;101505.38;5033262;28;20083;-73
2022/10/28 01:07:09;;;;;;;20.08;1.27;;;;;;;11.41;95.15;101501.28;5032818;28;20033;-74
2022/10/28 01:09:36;;;;;;;0.38;0.20;;;;;;;11.44;95.10;101499.25;5033121;28;20033;-73
2022/10/28 01:12:10;;;;;;;0.38;0.28;;;;;;;11.45;95.30;101502.81;5034082;28;20022;-73
2022/10/28 01:14:47;;;;;;;0.85;0.85;;;;;;;11.43;94.86;101502.06;5034247;28;20040;-74
2022/10/28 01:17:46;;;;;;;0.40;0.40;;;;;;;11.47;94.70;101498.16;5032439;28;20376;-74
2022/10/28 01:20:23;;;;;;;2.92;1.00;;;;;;;11.46;94.97;101504.53;5021862;28;20037;-74
2022/10/28 01:23:17;;;;;;;1.63;0.32;;;;;;;11.45;95.37;101502.81;5033964;28;20094;-74
2022/10/28 01:26:21;;;;;;;16.25;0.85;;;;;;;11.45;95.67;101514.44;5032815;28;20041;-74
2022/10/28 01:29:23;;;;;;;0.15;0.15;;;;;;;11.45;95.71;101509.06;5033937;28;20026;-74
2022/10/28 01:32:04;;;;;;;8.80;1.55;;;;;;;11.45;94.85;101513.56;5032183;28;20461;-74
2022/10/28 01:34:39;;;;;;;0.77;0.32;;;;;;;11.48;95.46;101512.50;5034112;28;20083;-73
2022/10/28 01:37:57;;;;;;;0.43;0.40;;;;;;;11.48;95.79;101513.34;5032380;28;20038;-74
2022/10/28 01:40:48;;;;;;;7.78;1.42;;;;;;;11.48;95.33;101516.03;5029401;28;20037;-73
2022/10/28 01:43:25;;;;;;;1.27;1.17;;;;;;;11.50;95.27;101511.41;5033824;28;20532;-74
2022/10/28 01:46:06;;;;;;;2.38;1.27;;;;;;;11.46;95.81;101520.69;5033584;28;20470;-73
2022/10/28 01:48:52;;;;;;;0.45;0.45;;;;;;;11.44;96.10;101509.16;5032136;28;20078;-73
2022/10/28 01:51:23;;;;;;;0.43;0.40;;;;;;;11.49;95.50;101511.50;5033269;28;20040;-74
2022/10/28 01:53:54;;;;;;;0.15;0.15;;;;;;;11.46;95.78;101512.59;5033103;28;20107;-75
2022/10/28 01:56:25;;;;;;;17.27;2.38;;;;;;;11.51;95.97;101517.66;5031891;28;20497;-73
2022/10/28 01:58:55;;;;;;;0.57;0.20;;;;;;;11.50;96.10;101510.53;5031628;28;20021;-74
2022/10/28 02:01:23;;;;;;;0.00;0.00;;;;;;;11.48;96.03;101518.72;5030989;28;20033;-74
2022/10/28 02:03:50;;;;;;;1.70;0.50;;;;;;;11.48;96.00;101507.97;5033223;28;20161;-75
2022/10/28 02:06:22;;;;;;;1.75;0.55;;;;;;;11.54;96.00;101507.50;5033183;28;20095;-74
2022/10/28 02:09:13;;;;;;;8.10;0.55;;;;;;;11.50;96.18;101506.00;5032915;28;20084;-74
2022/10/28 02:12:03;;;;;;;0.47;0.47;;;;;;;11.50;96.39;101500.63;5033128;28;20175;-74
2022/10/28 02:14:57;;;;;;;0.68;0.63;;;;;;;11.53;95.99;101500.41;5032903;28;20034;-74
2022/10/28 02:17:38;;;;;;;0.35;0.15;;;;;;;11.58;96.17;101511.69;5031623;28;20055;-74
2022/10/28 02:20:11;;;;;;;0.00;0.00;;;;;;;11.57;95.58;101506.41;5032696;28;20068;-73
2022/10/28 02:22:55;;;;;;;0.10;0.10;;;;;;;11.54;96.03;101502.13;5031692;28;20410;-74
2022/10/28 02:25:29;;;;;;;1.33;0.95;;;;;;;11.60;95.78;101515.16;5032053;28;20033;-72
2022/10/28 02:28:01;;;;;;;0.20;0.20;;;;;;;11.58;96.12;101514.38;5032224;28;20140;-74
2022/10/28 02:30:37;;;;;;;0.85;0.52;;;;;;;11.61;96.38;101503.41;5033102;28;20029;-73
2022/10/28 02:33:09;;;;;;;0.57;0.57;;;;;;;11.51;95.94;101502.34;5032495;28;20109;-74
2022/10/28 02:35:40;;;;;;;0.65;0.65;;;;;;;11.53;96.41;101500.41;5033062;28;20033;-74
2022/10/28 02:38:11;;;;;;;6.53;1.88;;;;;;;11.60;96.36;101498.16;5031367;28;20673;-76
2022/10/28 02:40:41;;;;;;;4.85;0.57;;;;;;;11.53;96.58;101492.31;5031144;28;20033;-75
2022/10/28 02:43:09;;;;;;;0.20;0.20;;;;;;;11.56;96.49;101488.53;5032300;28;20034;-74
2022/10/28 02:45:40;;;;;;;2.50;0.85;;;;;;;11.52;96.97;101487.91;5031300;28;20042;-73
2022/10/28 02:48:15;;;;;;;0.10;0.10;;;;;;;11.50;97.26;101489.84;5031152;28;20368;-73
2022/10/28 02:50:42;;;;;;;;;;;;;;;11.53;96.47;101481.56;5032681;28;20480;-73
2022/10/28 02:53:20;;;;;;;0.65;0.47;;;;;;;11.55;96.96;101481.44;5030559;28;19946;-73
2022/10/28 02:55:50;;;;;;;0.93;0.80;;;;;;;11.59;97.27;101489.22;5030891;28;20057;-74
2022/10/28 02:58:16;;;;;;;2.42;1.00;;;;;;;11.56;96.69;101484.00;5032430;28;20025;-74
2022/10/28 03:00:45;;;;;;;0.90;0.80;;;;;;;11.50;96.93;101484.47;5032244;28;20033;-73
2022/10/28 03:03:11;;;;;;;0.38;0.38;;;;;;;11.52;97.08;101485.22;5032139;28;20079;-72
2022/10/28 03:05:37;;;;;;;0.10;0.10;;;;;;;11.49;97.52;101485.44;5032189;28;20038;-73
2022/10/28 03:08:04;;;;;;;0.22;0.22;;;;;;;11.49;97.21;101485.44;5032766;28;20450;-74
2022/10/28 03:10:30;;;;;;;2.75;0.88;;;;;;;11.47;97.68;101481.16;5032438;28;20062;-73
2022/10/28 03:12:55;;;;;;;7.43;1.00;;;;;;;11.49;97.48;101477.38;5032175;28;20037;-72
2022/10/28 03:15:21;;;;;;;0.40;0.40;;;;;;;11.45;97.40;101473.19;5031108;28;20033;-73
2022/10/28 03:17:47;;;;;;;0.10;0.10;;;;;;;11.46;98.08;101474.91;5039083;28;20036;-73
2022/10/28 03:20:12;;;;;;;0.77;0.77;;;;;;;11.46;97.78;101466.81;5032403;28;20775;-74
2022/10/28 03:22:38;;;;;;;0.10;0.10;;;;;;;11.47;97.78;101468.53;5047510;28;20029;-73
2022/10/28 03:25:04;;;;;;;0.40;0.40;;;;;;;11.48;97.82;101467.56;5052844;28;20036;-74
2022/10/28 03:27:29;;;;;;;0.88;0.80;;;;;;;11.50;98.16;101467.47;5045734;28;20049;-74
2022/10/28 03:29:55;;;;;;;0.57;0.57;;;;;;;11.47;97.54;101468.53;5030904;28;20036;-74
2022/10/28 03:32:21;;;;;;;0.28;0.28;;;;;;;11.48;97.47;101456.81;5030827;28;20029;-75
2022/10/28 03:34:46;;;;;;;0.45;0.45;;;;;;;11.53;97.45;101462.69;5032125;28;20048;-72
2022/10/28 03:37:12;;;;;;;0.00;0.00;;;;;;;11.58;97.90;101460.53;5030395;28;20037;-75
2022/10/28 03:39:38;;;;;;;0.10;0.10;;;;;;;11.55;97.32;101462.59;5031918;28;20087;-72
2022/10/28 03:42:04;;;;;;;0.70;0.55;;;;;;;11.52;97.76;101460.97;5030678;28;20482;-74
2022/10/28 03:44:29;;;;;;;0.70;0.68;;;;;;;11.57;97.37;101464.19;5031928;28;20052;-73
2022/10/28 03:46:55;;;;;;;0.45;0.45;;;;;;;11.61;96.85;101459.47;5031648;28;20072;-74
2022/10/28 03:49:20;;;;;;;0.20;0.20;;;;;;;11.62;96.78;101467.44;5031286;28;20055;-73
2022/10/28 03:51:46;;;;;;;3.65;1.10;;;;;;;11.59;96.97;101466.75;5031874;28;20038;-75
2022/10/28 03:54:11;;;;;;;3.53;0.40;;;;;;;11.60;96.96;101464.00;5031697;28;20106;-75
2022/10/28 03:56:39;;;;;;;0.45;0.15;;;;;;;11.63;97.20;101465.59;5031801;28;20467;-74
2022/10/28 03:59:05;;;;;;;0.75;0.70;;;;;;;11.57;97.42;101464.19;5031361;28;20029;-75
2022/10/28 04:01:31;;;;;;;1.65;0.93;;;;;;;11.51;97.49;101470.03;5030234;28;20041;-74
2022/10/28 04:03:56;;;;;;;1.55;0.57;;;;;;;11.52;98.22;101462.81;5030130;28;20033;-73
2022/10/28 04:06:22;;;;;;;0.08;0.08;;;;;;;11.48;98.20;101458.63;5031842;28;20106;-74
2022/10/28 04:08:48;;;;;;;8.40;0.35;;;;;;;11.49;98.55;101461.22;5031789;28;20036;-73
2022/10/28 04:11:13;;;;;;;0.00;0.00;;;;;;;11.50;98.38;101457.53;5031319;28;20044;-73
2022/10/28 04:13:39;;;;;;;0.28;0.28;;;;;;;11.47;99.15;101441.63;5030079;28;20038;-73
2022/10/28 04:16:05;;;;;;;9.30;1.38;;;;;;;11.41;99.72;101453.66;5031514;28;20025;-74
2022/10/28 04:18:31;;;;;;;0.00;0.00;;;;;;;11.38;100.00;101447.66;5031338;28;20099;-73
2022/10/28 04:20:56;;;;;;;0.00;0.00;;;;;;;11.33;100.00;101445.31;5029600;28;20124;-73
2022/10/28 04:23:22;;;;;;;0.47;0.32;;;;;;;11.34;100.00;101444.34;5031276;28;20030;-73
2022/10/28 04:25:53;;;;;;;10.15;1.48;;;;;;;11.30;100.00;101433.91;5033282;28;20035;-74
2022/10/28 04:28:19;;;;;;;0.08;0.08;;;;;;;11.26;100.00;101435.09;5034857;28;20140;-75
2022/10/28 04:30:47;;;;;;;0.20;0.20;;;;;;;11.25;100.00;101431.53;5034682;28;20156;-74
2022/10/28 04:33:13;;;;;;;0.35;0.35;;;;;;;11.29;100.00;101418.72;5033326;28;20442;-71
2022/10/28 04:35:41;;;;;;;0.30;0.30;;;;;;;11.28;100.00;101420.56;5034562;28;20112;-75
2022/10/28 04:38:09;;;;;;;0.60;0.60;;;;;;;11.31;100.00;101419.47;5034674;28;20037;-72
2022/10/28 04:40:35;;;;;;;1.33;0.70;;;;;;;11.28;100.00;101419.69;5033534;28;20037;-73
2022/10/28 04:43:01;;;;;;;0.32;0.30;;;;;;;11.26;100.00;101427.03;5033505;28;20496;-72
2022/10/28 04:45:26;;;;;;;0.68;0.68;;;;;;;11.23;100.00;101428.09;5034870;28;20052;-72
2022/10/28 04:47:59;;;;;;;0.20;0.10;;;;;;;11.20;100.00;101416.69;5034939;28;20378;-74
2022/10/28 04:50:26;;;;;;;0.10;0.10;;;;;;;11.20;100.00;101416.69;5034823;28;20113;-73
2022/10/28 04:52:51;;;;;;;0.20;0.20;;;;;;;11.22;100.00;101409.34;5033628;28;20029;-74
2022/10/28 04:55:18;;;;;;;0.38;0.30;;;;;;;11.25;100.00;101411.81;5033030;28;20414;-73
2022/10/28 04:57:43;;;;;;;0.85;0.40;;;;;;;11.25;100.00;101417.22;5034473;28;20025;-70
2022/10/28 05:00:09;;;;;;;0.73;0.20;;;;;;;11.22;100.00;101404.84;5032341;28;20516;-74
2022/10/28 05:02:35;;;;;;;0.30;0.30;;;;;;;11.21;100.00;101402.25;5034115;28;20040;-74
2022/10/28 05:05:03;;;;;;;0.32;0.32;;;;;;;11.15;100.00;101404.44;5036387;28;20033;-74
2022/10/28 05:07:29;;;;;;;0.10;0.10;;;;;;;11.10;100.00;101395.84;5042152;28;20033;-73
2022/10/28 05:09:54;;;;;;;2.83;0.30;;;;;;;11.03;100.00;101402.63;5040725;28;20502;-74
2022/10/28 05:12:20;;;;;;;0.20;0.20;;;;;;;11.03;100.00;101394.53;5035117;28;20119;-74
2022/10/28 05:14:46;;;;;;;1.55;0.43;;;;;;;11.04;100.00;101400.78;5033304;28;20041;-74
2022/10/28 05:17:12;;;;;;;1.77;0.50;;;;;;;11.10;100.00;101400.38;5035828;28;20030;-72
2022/10/28 05:19:37;;;;;;;0.10;0.10;;;;;;;11.13;100.00;101397.44;5034116;28;20391;-73
2022/10/28 05:22:03;;;;;;;0.03;0.03;;;;;;;11.15;100.00;101399.06;5033587;28;20043;-73
2022/10/28 05:24:29;;;;;;;1.10;0.52;;;;;;;11.12;100.00;101399.28;5032345;28;20478;-73
2022/10/28 05:26:54;;;;;;;0.10;0.10;;;;;;;11.18;100.00;101397.09;5033538;28;20056;-73
2022/10/28 05:29:20;;;;;;;0.32;0.30;;;;;;;11.11;100.00;101386.78;5031858;28;20044;-74
2022/10/28 05:31:45;;;;;;;0.20;0.20;;;;;;;11.19;100.00;101393.44;5033729;28;20117;-76
2022/10/28 05:34:11;;;;;;;0.85;0.85;;;;;;;11.20;100.00;101393.31;5033703;28;20056;-73
2022/10/28 05:36:37;;;;;;;0.43;0.43;;;;;;;11.19;100.00;101388.91;5031824;28;20037;-74
2022/10/28 05:39:03;;;;;;;0.00;0.00;;;;;;;11.19;100.00;101390.75;5032077;28;20482;-75
2022/10/28 05:41:29;;;;;;;0.25;0.13;;;;;;;11.17;100.00;101390.00;5032824;28;20157;-75
2022/10/28 05:43:55;;;;;;;8.77;0.47;;;;;;;11.21;100.00;101380.72;5031360;28;20124;-73
2022/10/28 05:46:21;;;;;;;0.60;0.30;;;;;;;11.19;100.00;101386.22;5033482;28;20032;-74
2022/10/28 05:48:47;;;;;;;0.05;0.05;;;;;;;11.19;100.00;101391.59;5031890;28;20021;-74
2022/10/28 05:51:13;;;;;;;0.50;0.50;;;;;;;11.18;100.00;101387.19;5032489;28;20033;-75
2022/10/28 05:53:40;;;;;;;0.52;0.20;;;;;;;11.20;100.00;101385.25;5032632;28;20033;-75
2022/10/28 05:56:07;;;;;;;0.10;0.10;;;;;;;11.23;100.00;101389.53;5033177;28;20037;-74
2022/10/28 05:58:33;;;;;;;0.10;0.10;;;;;;;11.22;100.00;101393.22;5032561;28;20522;-74
2022/10/28 06:00:59;;;;;;;0.15;0.15;;;;;;;11.18;100.00;101378.25;5031979;28;20041;-74
2022/10/28 06:03:25;;;;;;;0.05;0.05;;;;;;;11.19;100.00;101379.97;5033203;28;20116;-74
2022/10/28 06:05:51;;;;;;;0.10;0.10;;;;;;;11.13;100.00;101379.47;5031489;28;20052;-74
2022/10/28 06:08:17;;;;;;;0.22;0.22;;;;;;;11.22;100.00;101371.69;5031280;28;20033;-74
2022/10/28 06:10:50;;;;;;;0.00;0.00;;;;;;;11.12;100.00;101371.50;5030799;28;20029;-74
2022/10/28 06:13:15;;;;;;;0.00;0.00;;;;;;;11.15;100.00;101376.66;5031046;28;20478;-73
2022/10/28 06:15:41;;;;;;;13.65;0.75;;;;;;;11.18;100.00;101370.19;5032457;28;20033;-74
2022/10/28 06:18:06;;;;;;;0.43;0.43;;;;;;;11.15;100.00;101369.44;5030628;28;20466;-74
2022/10/28 06:20:32;;;;;;;7.78;0.20;;;;;;;11.19;100.00;101366.53;5032251;28;20034;-77
2022/10/28 06:22:58;;;;;;;0.00;0.00;;;;;;;11.12;100.00;101372.38;5030557;28;20037;-73
2022/10/28 06:25:25;;;;;;;0.20;0.20;;;;;;;11.18;100.00;101364.81;5030083;28;20033;-73
2022/10/28 06:27:58;;;;;;;0.20;0.20;;;;;;;11.14;100.00;101366.88;5032014;28;20484;-74
2022/10/28 06:30:26;;;;;;;0.22;0.22;;;;;;;11.19;100.00;101355.75;5032155;28;20033;-74
2022/10/28 06:32:54;;;;;;;0.10;0.10;;;;;;;11.14;100.00;101356.09;5031953;28;20093;-73
2022/10/28 06:35:23;;;;;;;3.30;0.30;;;;;;;11.15;100.00;101350.59;5030488;28;20041;-73
2022/10/28 06:37:56;;;;;;;0.20;0.20;;;;;;;11.21;100.00;101353.81;5031838;28;20466;-73
2022/10/28 06:40:23;;;;;;;0.30;0.15;;;;;;;11.25;100.00;101360.69;5030204;28;20037;-73
2022/10/28 06:42:56;;;;;;;0.13;0.13;;;;;;;11.26;100.00;101351.66;5031780;28;20030;-74
2022/10/28 06:45:22;;;;;;;0.30;0.30;;;;;;;11.27;100.00;101345.31;5031683;28;20045;-76
2022/10/28 06:47:47;;;;;;;0.10;0.10;;;;;;;11.30;100.00;101347.75;5031638;28;20025;-74
2022/10/28 06:50:13;;;;;;;0.00;0.00;;;;;;;11.29;100.00;101344.22;5032004;28;20047;-74
2022/10/28 06:52:39;;;;;;;0.10;0.05;;;;;;;11.33;100.00;101337.63;5030232;28;20029;-75
2022/10/28 06:55:05;;;;;;;0.45;0.40;;;;;;;11.30;100.00;101337.00;5031018;28;20053;-74
2022/10/28 06:57:30;;;;;;;0.15;0.15;;;;;;;11.31;100.00;101338.72;5030193;28;20037;-73
2022/10/28 06:59:56;;;;;;;0.00;0.00;;;;;;;11.30;100.00;101337.84;5030903;28;20041;-73
2022/10/28 07:02:22;;;;;;;0.20;0.20;;;;;;;11.38;100.00;101339.97;5032373;28;20037;-74
2022/10/28 07:04:47;;;;;;;0.30;0.30;;;;;;;11.40;100.00;101333.47;5032683;28;20490;-74
2022/10/28 07:07:13;;;;;;;0.77;0.77;;;;;;;11.41;100.00;101334.34;5031100;28;20033;-75
2022/10/28 07:09:39;;;;;;;0.65;0.60;;;;;;;11.44;100.00;101328.75;5031973;28;20029;-75
2022/10/28 07:12:06;;;;;;;1.40;0.45;;;;;;;11.45;100.00;101338.56;5032392;28;20060;-74
2022/10/28 07:14:33;;;;;;;0.00;0.00;;;;;;;11.52;100.00;101329.03;5032921;28;20044;-74
2022/10/28 07:16:59;;;;;;;0.10;0.10;;;;;;;11.48;100.00;101343.69;5031353;28;20056;-72
2022/10/28 07:19:25;;;;;;;0.10;0.10;;;;;;;11.57;100.00;101340.31;5030861;28;20423;-73
2022/10/28 07:21:50;;;;;;;2.55;0.45;;;;;;;11.60;100.00;101334.72;5031689;28;20572;-74
2022/10/28 07:24:16;;;;;;;0.10;0.10;;;;;;;11.59;100.00;101335.69;5032003;28;20033;-71
2022/10/28 07:26:42;;;;;;;0.10;0.10;;;;;;;11.60;100.00;101340.09;5031705;28;20513;-74
2022/10/28 07:29:08;;;;;;;0.00;0.00;;;;;;;11.68;100.00;101347.59;5031747;28;20501;-73
2022/10/28 07:31:33;;;;;;;1.35;0.60;;;;;;;11.71;100.00;101339.28;5031684;28;20033;-74
2022/10/28 07:33:59;;;;;;;0.45;0.40;;;;;;;11.72;100.00;101339.16;5032481;28;20505;-74
2022/10/28 07:36:24;;;;;;;2.60;0.30;;;;;;;11.79;100.00;101333.34;5032672;28;20536;-73
2022/10/28 07:38:51;;;;;;;0.00;0.00;;;;;;;11.79;100.00;101338.75;5031214;28;20036;-74
2022/10/28 07:41:19;;;;;;;0.20;0.20;;;;;;;11.81;100.00;101339.47;5031719;28;20060;-73
2022/10/28 07:43:46;;;;;;;0.00;0.00;;;;;;;11.75;100.00;101344.31;5031932;28;20475;-71
2022/10/28 07:46:12;;;;;;;0.20;0.20;;;;;;;11.81;100.00;101339.47;5032846;28;20435;-73
2022/10/28 07:48:38;;;;;;;0.25;0.25;;;;;;;11.83;100.00;101334.81;5031974;28;20043;-72
2022/10/28 07:51:06;;;;;;;0.00;0.00;;;;;;;11.78;100.00;101328.91;5030784;28;20116;-73
2022/10/28 07:53:32;;;;;;;0.28;0.28;;;;;;;11.84;100.00;101341.94;5029822;28;20041;-73
2022/10/28 07:56:00;;;;;;;0.00;0.00;;;;;;;11.80;100.00;101332.38;5031551;28;20038;-73
2022/10/28 07:58:26;;;;;;;0.03;0.03;;;;;;;11.81;100.00;101328.69;5030343;28;20033;-72
2022/10/28 08:00:52;;;;;;;0.15;0.15;;;;;;;11.74;100.00;101329.13;5034966;28;20497;-72
2022/10/28 08:03:18;;;;;;;0.32;0.30;;;;;;;11.80;100.00;101335.06;5034821;28;20064;-73
2022/10/28 08:05:44;;;;;;;0.25;0.25;;;;;;;11.98;100.00;101329.13;5034692;28;20065;-73
2022/10/28 08:08:09;;;;;;;1.15;0.82;;;;;;;12.09;100.00;101330.97;5034904;28;20099;-74
2022/10/28 08:10:35;;;;;;;0.00;0.00;;;;;;;12.07;100.00;101316.75;5033697;28;20037;-73
2022/10/28 08:13:01;;;;;;;0.28;0.28;;;;;;;12.20;100.00;101319.38;5033019;28;20056;-74
2022/10/28 08:15:28;;;;;;;0.03;0.03;;;;;;;12.23;100.00;101322.69;5034949;28;20095;-73
2022/10/28 08:17:55;;;;;;;0.17;0.17;;;;;;;12.13;100.00;101327.09;5035029;28;20049;-73
2022/10/28 08:20:22;;;;;;;0.50;0.50;;;;;;;12.16;100.00;101320.59;5035150;28;20168;-72
2022/10/28 08:22:50;;;;;;;0.98;0.75;;;;;;;12.14;100.00;101318.03;5033114;28;20064;-71
2022/10/28 08:25:16;;;;;;;6.97;0.70;;;;;;;12.16;100.00;101323.28;5032691;28;20077;-73
2022/10/28 08:27:41;;;;;;;0.20;0.20;;;;;;;12.25;100.00;101325.25;5035033;28;20065;-73
2022/10/28 08:30:08;;;;;;;0.20;0.20;;;;;;;12.51;100.00;101315.97;5034474;28;20440;-73
2022/10/28 08:32:34;;;;;;;0.25;0.25;;;;;;;12.61;100.00;101311.56;5033250;28;20029;-72
2022/10/28 08:35:00;;;;;;;0.68;0.28;;;;;;;12.77;100.00;101315.75;5033046;28;20175;-73
2022/10/28 08:37:26;;;;;;;0.30;0.30;;;;;;;12.90;100.00;101311.91;5033120;28;20131;-73
2022/10/28 08:39:51;;;;;;;8.35;0.57;;;;;;;13.00;99.82;101300.38;5034006;28;20436;-73
2022/10/28 08:42:42;;;;;;;4.38;0.65;;;;;;;12.87;99.32;101292.41;5032883;28;20040;-72
2022/10/28 08:45:19;;;;;;;9.07;1.60;;;;;;;12.83;99.57;101294.50;5032267;28;20034;-72
2022/10/28 08:47:53;;;;;;;0.20;0.20;;;;;;;12.63;100.00;101303.38;5033742;28;20025;-74
2022/10/28 08:50:22;;;;;;;0.05;0.05;;;;;;;12.57;100.00;101314.63;5032689;28;20029;-73
2022/10/28 08:53:10;;;;;;;0.20;0.20;;;;;;;12.55;100.00;101311.19;5033596;28;20482;-72
2022/10/28 08:55:44;;;;;;;0.20;0.20;;;;;;;12.62;100.00;101312.44;5031447;28;20094;-72
2022/10/28 08:58:24;;;;;;;0.52;0.40;;;;;;;12.77;100.00;101305.81;5032422;28;20041;-73
2022/10/28 09:00:53;;;;;;;0.57;0.30;;;;;;;12.69;100.00;101302.00;5032522;28;20120;-74
2022/10/28 09:03:27;;;;;;;1.95;0.10;;;;;;;12.67;100.00;101304.81;5031827;28;20103;-72
2022/10/28 09:05:59;;;;;;;0.15;0.15;;;;;;;12.68;100.00;101302.97;5031684;28;20036;-71
2022/10/28 09:08:27;;;;;;;0.57;0.57;;;;;;;12.73;100.00;101298.06;5033858;28;20042;-72
2022/10/28 09:11:17;;;;;;;0.60;0.40;;;;;;;12.65;100.00;101288.75;5032905;28;20367;-73
2022/10/28 09:14:10;;;;;;;0.20;0.20;;;;;;;12.67;100.00;101294.03;5032352;28;20098;-73
2022/10/28 09:16:47;;;;;;;0.20;0.20;;;;;;;12.85;100.00;101281.75;5032645;28;20117;-72
2022/10/28 09:19:36;;;;;;;0.32;0.32;;;;;;;12.91;100.00;101281.25;5033454;28;20465;-73
2022/10/28 09:22:22;;;;;;;0.20;0.20;;;;;;;12.90;100.00;101279.53;5032663;28;20526;-72
2022/10/28 09:25:29;;;;;;;1.88;0.38;;;;;;;12.93;99.99;101279.31;5033269;28;20025;-70
2022/10/28 09:28:16;;;;;;;3.67;1.20;;;;;;;13.04;100.00;101286.50;5031951;28;20030;-73
2022/10/28 09:30:50;;;;;;;0.10;0.10;;;;;;;13.08;99.26;101292.50;5031911;28;20030;-73
2022/10/28 09:33:39;;;;;;;0.20;0.20;;;;;;;13.16;99.22;101290.03;5033090;28;20033;-74
2022/10/28 09:36:13;;;;;;;0.15;0.15;;;;;;;13.18;99.26;101298.91;5031406;28;20398;-73
2022/10/28 09:38:40;;;;;;;0.15;0.10;;;;;;;13.27;99.28;101295.44;5031756;28;20030;-72
2022/10/28 09:41:23;;;;;;;0.30;0.30;;;;;;;13.34;98.76;101304.75;5031683;28;20141;-71
2022/10/28 09:43:53;;;;;;;0.40;0.40;;;;;;;13.12;98.75;101294.84;5031286;28;20026;-71
2022/10/28 09:46:22;;;;;;;0.10;0.10;;;;;;;13.22;99.18;101294.94;5032861;28;20034;-73
2022/10/28 09:48:55;;;;;;;0.15;0.15;;;;;;;13.22;98.94;101298.50;5031086;28;20026;-72
2022/10/28 09:51:46;;;;;;;0.25;0.25;;;;;;;13.43;98.33;101303.97;5031300;28;20474;-72
2022/10/28 09:54:13;;;;;;;0.55;0.55;;;;;;;13.48;97.73;101290.09;5031406;28;20065;-72
2022/10/28 09:56:39;;;;;;;0.45;0.45;;;;;;;13.58;98.71;101298.25;5032329;28;20036;-73
2022/10/28 09:59:06;;;;;;;0.88;0.65;;;;;;;13.60;99.23;101293.59;5032371;28;20155;-72
2022/10/28 10:01:38;;;;;;;0.30;0.30;;;;;;;13.49;98.33;101281.84;5031404;28;20450;-73
2022/10/28 10:04:18;;;;;;;1.83;1.00;;;;;;;13.54;98.85;101274.22;5031275;28;20183;-72
2022/10/28 10:06:48;;;;;;;0.20;0.20;;;;;;;13.95;98.28;101267.13;5032521;28;20175;-72
2022/10/28 10:09:22;;;;;;;0.40;0.40;;;;;;;14.20;97.11;101260.44;5032690;28;20033;-71
2022/10/28 10:11:50;;;;;;;0.40;0.40;;;;;;;14.88;95.34;101239.09;5033261;28;20076;-71
2022/10/28 10:14:21;;;;;;;0.20;0.20;;;;;;;15.29;92.28;101238.88;5031946;28;20110;-73
2022/10/28 10:16:59;;;;;;;0.70;0.70;;;;;;;15.40;89.00;101223.47;5030305;28;20055;-73
2022/10/28 10:19:25;;;;;;;0.40;0.40;;;;;;;15.24;91.08;101233.00;5030539;28;20159;-73
2022/10/28 10:21:56;;;;;;;0.38;0.38;;;;;;;15.06;89.83;101232.00;5030076;28;20033;-73
2022/10/28 10:24:27;;;;;;;2.40;0.43;;;;;;;15.16;89.31;101232.88;5031408;28;20029;-72
2022/10/28 10:26:55;;;;;;;2.17;1.55;;;;;;;14.93;90.93;101225.97;5031782;28;20037;-71
2022/10/28 10:29:21;;;;;;;0.45;0.20;;;;;;;14.75;91.45;101228.50;5032031;28;20386;-72
2022/10/28 10:31:47;;;;;;;0.15;0.15;;;;;;;14.67;91.66;101221.09;5032470;28;20494;-74
2022/10/28 10:34:24;;;;;;;0.20;0.20;;;;;;;14.42;91.71;101224.22;5031855;28;20033;-73
2022/10/28 10:36:55;;;;;;;1.85;0.88;;;;;;;14.43;92.82;101220.53;5031865;28;20041;-71
2022/10/28 10:39:25;;;;;;;0.32;0.32;;;;;;;14.61;92.42;101210.84;5029999;28;20037;-71
2022/10/28 10:41:54;;;;;;;0.17;0.17;;;;;;;14.44;92.50;101215.06;5032154;28;20083;-72
2022/10/28 10:44:19;;;;;;;0.20;0.20;;;;;;;14.29;93.09;101216.38;5030069;28;20124;-71
2022/10/28 10:47:05;;;;;;;0.10;0.10;;;;;;;14.19;93.55;101217.31;5030190;28;20056;-72
2022/10/28 10:49:31;;;;;;;0.20;0.20;;;;;;;14.02;94.64;101216.09;5026177;28;20552;-72
2022/10/28 10:52:16;;;;;;;0.63;0.10;;;;;;;14.09;94.40;101214.53;5031147;28;20034;-70
2022/10/28 10:54:55;;;;;;;0.38;0.25;;;;;;;14.00;95.04;101221.63;5029059;28;20045;-71
2022/10/28 10:57:22;;;;;;;0.40;0.30;;;;;;;14.19;94.48;101225.41;5031292;28;20048;-72
2022/10/28 10:59:51;;;;;;;0.10;0.10;;;;;;;14.17;93.96;101211.19;5029374;28;20081;-71
2022/10/28 11:02:30;;;;;;;0.00;0.00;;;;;;;13.94;95.11;101214.06;5029711;28;20118;-71
2022/10/28 11:05:02;;;;;;;0.17;0.17;;;;;;;14.06;95.22;101212.13;5029427;28;20032;-72
2022/10/28 11:07:30;;;;;;;0.20;0.20;;;;;;;14.02;94.92;101207.97;5031385;28;20025;-72
2022/10/28 11:09:56;;;;;;;0.10;0.10;;;;;;;13.90;95.84;101215.31;5029436;28;20056;-70
2022/10/28 11:12:22;;;;;;;0.20;0.20;;;;;;;13.79;96.20;101204.59;5029082;28;20433;-72
2022/10/28 11:14:59;;;;;;;0.00;0.00;;;;;;;13.90;96.35;101199.09;5031227;28;20033;-72
2022/10/28 11:17:28;;;;;;;0.13;0.13;;;;;;;13.93;96.12;101182.59;5030004;28;20120;-71
2022/10/28 11:19:56;;;;;;;0.20;0.20;;;;;;;13.97;96.12;101173.25;5029903;28;20136;-71
2022/10/28 11:22:44;;;;;;;0.00;0.00;;;;;;;14.00;96.12;101182.94;5031191;28;20021;-70
2022/10/28 11:25:10;;;;;;;0.73;0.70;;;;;;;13.95;95.96;101175.22;5031241;28;20069;-71
2022/10/28 11:28:18;;;;;;;0.30;0.30;;;;;;;13.97;96.33;101165.13;5031235;28;20065;-70
2022/10/28 11:31:08;;;;;;;0.35;0.35;;;;;;;13.91;96.22;101162.94;5028611;28;20402;-72
2022/10/28 11:33:33;;;;;;;0.30;0.30;;;;;;;13.85;96.96;101166.19;5031408;28;20064;-72
2022/10/28 11:36:19;;;;;;;1.00;0.43;;;;;;;13.78;97.77;101162.34;5033091;28;20191;-70
2022/10/28 11:39:23;;;;;;;0.20;0.20;;;;;;;13.87;98.01;101166.91;5035699;28;20053;-72